Goshen, New York
Current Conditions -  °F | °C
As of 4:54 AM on Monday 22 Dec 2014 (Local Time) from KMGJ Reporting Station
Light Snow Light Snow  
Wind Chill: 26°   Ceiling: 1200
Heat Index: 31°   Visibility: 3mi
Dew Point: 28°   Wind: 5mph
Humidity: 89%   Direction: 40°NE
Pressure: 30.32"   Gusts: NA
Location:  41.41°N, 74.32°W
Report Text: KMGJ 220954Z AUTO 04004KT 3SM -SN BR OVC012 M01/M02 A3032 RMK AO2 SNB40 SLP270 P0000 T10061022 TSNO
Loading
Personal Weather Stations






























Interactive Weather Map New forecast layout! Learn more

10-Day Weather Forecast

Advertisements
Track Severe Weather on mobile